Airfield :
LOGIN :

Register | Disclaimer

   EN    FR    IT 

 










Legend :    VFR   Marginal VFR   IFR   Intensive IFR   Very Intensive IFR
Visi :
Ceiling :
>= 8 km
>= 3000ft
5 to 8 km
1000 to 3000 ft
1500m to 5 km
500 to 1000 ft
800 to 1500m
200 to 500 ft
< 800m
< 200 ft
Symbols :   Thunderstorms  Fog  Heavy snow  Heavy precipitations  Wind > 20 kt
SIGMETs :     Misc.  Thunderstorms  Icing  Turbulence  Mountain Waves  Volcanic Ashes







- Airport Elevation : 287 ft
- Download approach charts


LFRL - Lanveoc Poulmic

CURRENT METAR :
  • 202200Z AUTO 19006KT 9999 FEW033 14/12 Q1013

EXPIRED METARs :
  • 202130Z AUTO 20007KT CAVOK 14/11 Q1013
  • 202100Z AUTO 20008KT 9999 FEW042 BKN050 14/10 Q1014
  • 202030Z AUTO 20007KT CAVOK 14/10 Q1014
  • 202000Z AUTO 21009KT 9999 FEW025 15/10 Q1014
  • 201930Z AUTO 21010KT 9999 FEW026 16/10 Q1014

TAF TAF LFRL
Valid from the 20 at 15:00 until the 21 at 00:00 UTC


201400Z 2015/2024 25015KT 9999 BKN031 BKN044 OVC050
TEMPO 2022/2024 25012G22KT
No reported NOTAMs for that airfield.



MET'MAP, your aeronautical weather chart ! - Copyright ORBIFLY December 2007 - Disclaimer

ORBIFLY MET'MAP TEAM :

Programming & Development : Alexandra Zaïnal
Concept & Development : Baudouin d'Aumeries
Co-Development & Prog : Marc-Olivier Méhu
Technical & hardware support : Manuel Goepfert

Contact : metmap@orbifly.com




SOURCES & CREDITS :

   NOAA